Nearby METAR Reports

 

KVCT - Victoria, Texas, USA
Distance from station: E 12mi, 20km
Updated: 07/13/2020 10:51pm
Partly cloudy
Partly cloudy
 Wind from SSE
Wind: SSE 6 mph , 9 km/h
Temperature: 82°F , 28°C
Heat Index: 89°F , 32°C
Dew Point: 75°F , 24°C
Humidity: 79%
Barometer: 29.91 inHg , 1012.9 hPa
Clouds: Partly cloudy
Visibility: 9 miles , 14 km
Cloud details: Partly cloudy 1600 ft
2020/07/14 03:51 KVCT 140351Z AUTO 16005KT 9SM SCT016 28/24 A2991 RMK AO2 SLP127 T02780244
KPKV - Port Lavaca, Texas, USA
Distance from station: ESE 31mi, 50km
Updated: 07/13/2020 11:35pm
Partly cloudy
Partly cloudy
 Wind from S
Wind: S 9 mph , 15 km/h
Temperature: 82°F , 28°C
Heat Index: 91°F , 33°C
Dew Point: 79°F , 26°C
Humidity: 89%
Barometer: 29.92 inHg , 1013.2 hPa
Clouds: Partly cloudy
Visibility: 7 miles , 11 km
Cloud details: Partly cloudy 1500 ft
2020/07/14 04:35 KPKV 140435Z AUTO 17008KT 7SM SCT015 28/26 A2992 RMK AO2 T02780264
 
KT20 - Gonzales Muni, Texas, USA
Distance from station: NNW 50mi, 81km
Updated: 07/13/2020 11:35pm
Clear
Clear
 Wind from S
Wind: S 12 mph , 19 km/h, Gust: 16 mph , 26 km/h
Temperature: 82°F , 28°C
Heat Index: 90°F , 32°C
Dew Point: 77°F , 25°C
Humidity: 84%
Barometer: 29.90 inHg , 1012.5 hPa
Clouds: Clear
Visibility: 10 miles , 16 km
2020/07/14 04:35 KT20 140435Z AUTO 17010G14KT 10SM CLR 28/25 A2990 RMK AO2 T02750245
KBEA - Beeville Muni, Texas, USA
Distance from station: SW 51mi, 83km
Updated: 07/13/2020 11:35pm
Clear
Clear
 Wind from SSE
Wind: SSE 9 mph , 15 km/h
Temperature: 81°F , 27°C
Heat Index: 89°F , 32°C
Dew Point: 79°F , 26°C
Humidity: 94%
Barometer: 29.90 inHg , 1012.5 hPa
Clouds: Clear
Visibility: 10 miles , 16 km
2020/07/14 04:35 KBEA 140435Z AUTO 15008KT 10SM CLR 27/26 A2990 RMK AO2 T02700261
 
KRKP - Rockport, Texas, USA
Distance from station: S 53mi, 86km
Updated: 07/13/2020 10:53pm
Few Clouds
Few Clouds
 Wind from SSE
Wind: SSE 12 mph , 19 km/h, Gust: 24 mph , 39 km/h
Temperature: 82°F , 28°C
Heat Index: 90°F , 32°C
Dew Point: 77°F , 25°C
Humidity: 84%
Barometer: 29.89 inHg , 1012.2 hPa
Clouds: Few Clouds
Visibility: 7 miles , 11 km
Cloud details: Few Clouds 1200 ft
2020/07/14 03:53 KRKP 140353Z AUTO 16010G21KT 7SM FEW012 28/25 A2989 RMK AO2 SLP124 T02830250 $
KPSX - Palacios, Texas, USA
Distance from station: E 55mi, 88km
Updated: 07/13/2020 10:53pm
Mostly cloudy
Mostly cloudy
 Wind from S
Wind: S 15 mph , 24 km/h
Temperature: 84°F , 29°C
Heat Index: 96°F , 36°C
Dew Point: 79°F , 26°C
Humidity: 84%
Barometer: 29.91 inHg , 1012.9 hPa
Clouds: Mostly cloudy
Visibility: 9 miles , 14 km
Cloud details: Mostly cloudy 1600 ft
2020/07/14 03:53 KPSX 140353Z AUTO 17013KT 9SM BKN016 29/26 A2991 RMK AO2 PK WND 15026/0313 SLP129 T02940256
 
KTFP - Ingleside/Tp Mcc, Texas, USA
Distance from station: S 65mi, 104km
Updated: 07/13/2020 11:35pm
Clear
Clear
 Wind from S
Wind: S 13 mph , 20 km/h, Gust: 24 mph , 39 km/h
Temperature: 82°F , 28°C
Heat Index: 93°F , 34°C
Dew Point: 81°F , 27°C
Humidity: 94%
Barometer: 29.91 inHg , 1012.9 hPa
Clouds: Clear
Visibility: 10 miles , 16 km
2020/07/14 04:35 KTFP 140435Z AUTO 18011G21KT 10SM CLR 28/27 A2991 RMK AO2 T02810266 PNO
K66R - Columbus, Texas, USA
Distance from station: NE 66mi, 106km
Updated: 07/13/2020 11:35pm
Clear
Clear
 Wind from SSE
Wind: SSE 8 mph , 13 km/h
Temperature: 81°F , 27°C
Heat Index: 88°F , 31°C
Dew Point: 77°F , 25°C
Humidity: 89%
Barometer: 29.92 inHg , 1013.2 hPa
Clouds: Clear
Visibility: 10 miles , 16 km
2020/07/14 04:35 K66R 140435Z AUTO 16007KT 10SM CLR 27/25 A2992 RMK AO2 T02650250
 
KARM - Wharton, Texas, USA
Distance from station: ENE 66mi, 106km
Updated: 07/13/2020 11:35pm
Partly cloudy
Partly cloudy
 Wind from SSE
Wind: SSE 8 mph , 13 km/h
Temperature: 79°F , 26°C
Dew Point: 75°F , 24°C
Humidity: 89%
Barometer: 29.93 inHg , 1013.5 hPa
Clouds: Partly cloudy
Visibility: 10 miles , 16 km
Cloud details: Partly cloudy 1700 ft
2020/07/14 04:35 KARM 140435Z AUTO 16007KT 10SM SCT017 26/24 A2993 RMK AO2 T02600236
KRAS - Port Aransas, Texas, USA
Distance from station: S 71mi, 115km
Updated: 07/13/2020 11:35pm
Clear
Clear
 Wind from SSE
Wind: SSE 13 mph , 20 km/h
Temperature: 81°F , 27°C
Heat Index: 88°F , 31°C
Dew Point: 77°F , 25°C
Humidity: 89%
Barometer: 29.93 inHg , 1013.5 hPa
Clouds: Clear
Visibility: 10 miles , 16 km
2020/07/14 04:35 KRAS 140435Z AUTO 16011KT 10SM CLR 27/25 A2993 RMK AO2 T02710252
 
KELA - Eagle Lake, Texas, USA
Distance from station: NE 72mi, 115km
Updated: 07/13/2020 11:35pm
Partly cloudy
Partly cloudy
 Wind from SSE
Wind: SSE 6 mph , 9 km/h
Temperature: 81°F , 27°C
Heat Index: 89°F , 32°C
Dew Point: 79°F , 26°C
Humidity: 94%
Barometer: 29.93 inHg , 1013.5 hPa
Clouds: Partly cloudy
Visibility: 10 miles , 16 km
Cloud details: Partly cloudy 1400 ft
2020/07/14 04:35 KELA 140435Z AUTO 15005KT 10SM SCT014 27/26 A2993 RMK AO2 T02680256
K3T5 - La Grange, Texas, USA
Distance from station: N 73mi, 118km
Updated: 07/13/2020 11:35pm

 Wind from S
Wind: S 10 mph , 17 km/h
Temperature: 82°F , 28°C
Heat Index: 90°F , 32°C
Dew Point: 77°F , 25°C
Humidity: 84%
Barometer: 29.89 inHg , 1012.2 hPa
2020/07/14 04:35 K3T5 140435Z AUTO 17009KT 28/25 A2989 RMK AO2 T02800253 PWINO
 
KBYY - Bay City, Texas, USA
Distance from station: E 77mi, 124km
Updated: 07/13/2020 11:35pm
Partly cloudy
Partly cloudy
 Wind from S
Wind: S 6 mph , 9 km/h
Temperature: 79°F , 26°C
Dew Point: 77°F , 25°C
Humidity: 94%
Barometer: 29.93 inHg , 1013.5 hPa
Clouds: Partly cloudy
Visibility: 10 miles , 16 km
Cloud details: Partly cloudy 1600 ft
2020/07/14 04:35 KBYY 140435Z AUTO 17005KT 10SM SCT016 26/25 A2993 RMK AO2 T02610250
KCRP - Corpus Christi, Texas, USA
Distance from station: SSW 78mi, 126km
Updated: 07/13/2020 10:51pm
Clear
Clear
 Wind from SSE
Wind: SSE 16 mph , 26 km/h, Gust: 23 mph , 37 km/h
Temperature: 81°F , 27°C
Heat Index: 88°F , 31°C
Dew Point: 77°F , 25°C
Humidity: 89%
Barometer: 29.88 inHg , 1011.9 hPa
Clouds: Clear
Visibility: 10 miles , 16 km
2020/07/14 03:51 KCRP 140351Z 16014G20KT 10SM CLR 27/25 A2988 RMK AO2 SLP117 T02720250 $
 
KNGP - C. Christi Nas, Texas, USA
Distance from station: S 81mi, 130km
Updated: 07/13/2020 10:56pm
Clear
Clear
 Wind from SSE
Wind: SSE 18 mph , 30 km/h, Gust: 29 mph , 46 km/h
Temperature: 81°F , 27°C
Heat Index: 91°F , 33°C
Dew Point: 81°F , 27°C
Humidity: 100%
Barometer: 29.89 inHg , 1012.2 hPa
Clouds: Clear
Visibility: 10 miles , 16 km
2020/07/14 03:56 KNGP 140356Z 16016G25KT 10SM CLR 27/27 A2989 RMK AO2 PK WND 17029/0308 SLP122 T02720267
KRBO - Robstown/Nueces, Texas, USA
Distance from station: SSW 81mi, 130km
Updated: 07/13/2020 11:35pm
Clear
Clear
 Wind from SSE
Wind: SSE 13 mph , 20 km/h, Gust: 17 mph , 28 km/h
Temperature: 81°F , 27°C
Heat Index: 87°F , 31°C
Dew Point: 75°F , 24°C
Humidity: 84%
Barometer: 29.91 inHg , 1012.9 hPa
Clouds: Clear
Visibility: 10 miles , 16 km
2020/07/14 04:35 KRBO 140435Z AUTO 16011G15KT 10SM CLR 27/24 A2991 RMK AO2 T02680242
 
KBAZ - New Braunfels, Texas, USA
Distance from station: NW 81mi, 131km
Updated: 07/13/2020 10:51pm
Clear
Clear
 Wind from SSE
Wind: SSE 15 mph , 24 km/h
Temperature: 88°F , 31°C
Heat Index: 93°F , 34°C
Dew Point: 70°F , 21°C
Humidity: 55%
Barometer: 29.87 inHg , 1011.5 hPa
Clouds: Clear
Visibility: 10 miles , 16 km
2020/07/14 03:51 KBAZ 140351Z AUTO 16013KT 10SM CLR 31/21 A2987 RMK AO2 SLP105 T03110211
KRND - Randolph Afb, Texas, USA
Distance from station: NW 82mi, 132km
Updated: 07/13/2020 10:56pm
Clear
Clear
 Wind from SSE
Wind: SSE 15 mph , 24 km/h
Temperature: 86°F , 30°C
Heat Index: 92°F , 33°C
Dew Point: 72°F , 22°C
Humidity: 62%
Barometer: 29.89 inHg , 1012.2 hPa
Clouds: Clear
Visibility: 10 miles , 16 km
2020/07/14 03:56 KRND 140356Z AUTO 16013KT 10SM CLR 30/22 A2989 RMK AO2 SLP112 T02970221 $
 
KHYI - San Marcos, Texas, USA
Distance from station: NNW 84mi, 135km
Updated: 07/13/2020 10:56pm
Clear
Clear
 Wind from SSE
Wind: SSE 14 mph , 22 km/h
Temperature: 86°F , 30°C
Heat Index: 88°F , 31°C
Dew Point: 66°F , 19°C
Humidity: 52%
Barometer: 29.90 inHg , 1012.5 hPa
Clouds: Clear
Visibility: 10 miles , 16 km
2020/07/14 03:56 KHYI 140356Z AUTO 16012KT 10SM CLR 30/19 A2990 RMK AO2 SLP111 T03000194
KPEZ - Pleasanton Muni, Texas, USA
Distance from station: W 84mi, 135km
Updated: 07/13/2020 11:35pm
Clear
Clear
 Wind from SE
Wind: SE 8 mph , 13 km/h, Gust: 16 mph , 26 km/h
Temperature: 84°F , 29°C
Heat Index: 92°F , 33°C
Dew Point: 75°F , 24°C
Humidity: 74%
Barometer: 29.88 inHg , 1011.9 hPa
Clouds: Clear
Visibility: 10 miles , 16 km
2020/07/14 04:35 KPEZ 140435Z AUTO 13007G14KT 10SM CLR 29/24 A2988 RMK AO2 T02900237